Etusivu
METAR-TAF:

METAR-TAF

Lentoasemat :

London City Airport

Lontoo, Englanti

Leveyspiiri: 51-30N, Pituuspiiri: 000-03E, korkeus merenpinnasta: 5 m

Tämänhetkinen sää

Tämä raportti tehtiin 28 minuuttia sitten, kello 18.50 UTC
Tuuli 12 kn lännestä
Lämpötila 9°C
Kosteus 76%
Ilmanpaine 998 hPa
Näkyvyys 10 km tai enemmän
Muutamia pilviä 2200 ft:n korkeudessa
Pilvistä 4200 ft:n korkeudessa

METAR: EGLC 121850Z AUTO 26012KT 9999 FEW022 OVC042 09/05 Q0998

Aika: 19:18 (19:18 UTC)

Sääennuste

Tämä raportti tehtiin 2 tuntia ja 18 minuuttia sitten, kello 17.00 UTC
Ennuste voimassa 12. päivästä klo 18 UTC - 12. päivään klo 23 UTC
Tuuli 12 kn lännestä
Näkyvyys 10 km tai enemmän
Hajonneita pilviä 2200 ft:n korkeudessa
Todennäköisyys 30% :
Ajoittain
12. päivästä klo 18 UTC - 12. päivään klo 20 UTC
Näkyvyys: 7000 m
Hajonneita pilviä 1400 ft:n korkeudessa
sadetta

TAF: EGLC 121700Z 1218/1223 26012KT 9999 BKN022 PROB30 TEMPO 1218/1220 7000 RA BKN014

Säähavainnot ja -ennusteet yli 4000 lentoasemalta (METAR- ja TAF-raportit).

Käytössä olevat sääasemat on merkitty karttaan keltaisilla ja punaisilla pisteillä.

Aseta hiiri pisteen päälle nähdäksesi sääaseman nimen.

Klikkaa sitten nähdäksesi säähavainnot ja -ennusteet.

Kartan vaihtaminen: klikkaa mustalla rastilla varustettuja vihreitä pisteitä, niin voit zoomata sisään; viivalla varustettua vihreää pistettä, niin voit zoomata ulos tai vihreitä nuolia, niin pääset viereisille kartoille.


METAR-TAF: